
Distance (Route):
Temperature : -29.2°C
Humidity : 12.1%
Pressure : 0hPa| Receiver | Frames | First received | Last received |
|---|---|---|---|
| LZ4TU-5 | 105 | 2026-09-05 05:38:03 | 2026-09-05 06:55:09 |
| Receiver | Date | Latitude | Longitude | Direction | Speed | Altitude | Climb | Temperature | Humidity | Pressure | Voltage | Killtimer | Uptime | BKT | XDATA |
|---|---|---|---|---|---|---|---|---|---|---|---|---|---|---|---|
| LZ4TU-5 | 2026-09-05 06:55:09 | 43.15560 | 20.22793 | 133° | 40km/h | 8927m | -14.0m/s | -29.2°C | 12.1% | 0hPa | 0V | 00:00:00 | 00:00:00 | 00:00:00 | |
| LZ4TU-5 | 2026-09-05 06:55:04 | 43.15593 | 20.22743 | 133° | 38km/h | 9000m | -14.2m/s | -29.7°C | 12.0% | 0hPa | 0V | 00:00:00 | 00:00:00 | 00:00:00 | |
| LZ4TU-5 | 2026-09-05 06:53:43 | 43.16087 | 20.22070 | 136° | 27km/h | 10228m | -15.4m/s | -38.6°C | 13.2% | 0hPa | 0V | 00:00:00 | 00:00:00 | 00:00:00 | |
| LZ4TU-5 | 2026-09-05 06:53:38 | 43.16111 | 20.22037 | 134° | 27km/h | 10309m | -16.0m/s | -39.3°C | 12.7% | 0hPa | 0V | 00:00:00 | 00:00:00 | 00:00:00 | |
| LZ4TU-5 | 2026-09-05 06:52:20 | 43.16339 | 20.21368 | 119° | 22km/h | 11654m | -19.4m/s | -50.9°C | 31.4% | 0hPa | 0V | 00:00:00 | 00:00:00 | 00:00:00 | |
| LZ4TU-5 | 2026-09-05 06:52:15 | 43.16352 | 20.21333 | 119° | 24km/h | 11752m | -19.3m/s | -51.7°C | 32.1% | 0hPa | 0V | 00:00:00 | 00:00:00 | 00:00:00 | |
| LZ4TU-5 | 2026-09-05 06:50:48 | 43.16719 | 20.20795 | 144° | 31km/h | 13512m | -20.5m/s | -64.6°C | 12.1% | 0hPa | 0V | 00:00:00 | 00:00:00 | 00:00:00 | |
| LZ4TU-5 | 2026-09-05 06:50:44 | 43.16744 | 20.20769 | 145° | 31km/h | 13599m | -21.2m/s | -65.0°C | 11.0% | 0hPa | 0V | 00:00:00 | 00:00:00 | 00:00:00 | |
| LZ4TU-5 | 2026-09-05 06:49:20 | 43.17017 | 20.19973 | 93° | 31km/h | 15533m | -25.7m/s | -61.7°C | 0.0% | 0hPa | 0V | 00:00:00 | 00:00:00 | 00:00:00 | |
| LZ4TU-5 | 2026-09-05 06:49:15 | 43.17016 | 20.19919 | 82° | 33km/h | 15659m | -25.4m/s | -62.0°C | 0.0% | 0hPa | 0V | 00:00:00 | 00:00:00 | 00:00:00 | |
| LZ4TU-5 | 2026-09-05 06:47:26 | 43.17089 | 20.18649 | 133° | 20km/h | 18559m | -28.8m/s | -59.1°C | 0.0% | 0hPa | 0V | 00:00:00 | 00:00:00 | 00:00:00 | |
| LZ4TU-5 | 2026-09-05 06:47:21 | 43.17099 | 20.18631 | 99° | 9km/h | 18707m | -29.6m/s | -59.1°C | 0.0% | 0hPa | 0V | 00:00:00 | 00:00:00 | 00:00:00 | |
| LZ4TU-5 | 2026-09-05 06:46:01 | 43.17046 | 20.18495 | 92° | 18km/h | 21126m | -32.7m/s | -56.0°C | 0.0% | 0hPa | 0V | 00:00:00 | 00:00:00 | 00:00:00 | |
| LZ4TU-5 | 2026-09-05 06:45:57 | 43.17051 | 20.18473 | 134° | 15km/h | 21261m | -33.8m/s | -54.9°C | 0.0% | 0hPa | 0V | 00:00:00 | 00:00:00 | 00:00:00 | |
| LZ4TU-5 | 2026-09-05 06:44:30 | 43.16983 | 20.18502 | 254° | 9km/h | 24091m | -32.9m/s | -51.0°C | 0.1% | 0hPa | 0V | 00:00:00 | 00:00:00 | 00:00:00 | |
| LZ4TU-5 | 2026-09-05 06:44:25 | 43.16986 | 20.18512 | 0° | 0km/h | 24261m | -33.9m/s | -50.8°C | 0.1% | 0hPa | 0V | 00:00:00 | 00:00:00 | 00:00:00 | |
| LZ4TU-5 | 2026-09-05 06:42:37 | 43.16908 | 20.18758 | 321° | 9km/h | 27949m | -43.5m/s | -45.2°C | 0.9% | 0hPa | 0V | 00:00:00 | 00:00:00 | 00:00:00 | |
| LZ4TU-5 | 2026-09-05 06:42:33 | 43.16903 | 20.18760 | 0° | 0km/h | 28121m | -40.5m/s | -44.7°C | 0.9% | 0hPa | 0V | 00:00:00 | 00:00:00 | 00:00:00 | |
| LZ4TU-5 | 2026-09-05 06:41:12 | 43.16691 | 20.18718 | 73° | 20km/h | 30967m | -32.4m/s | -40.5°C | 1.6% | 0hPa | 0V | 00:00:00 | 00:00:00 | 00:00:00 | |
| LZ4TU-5 | 2026-09-05 06:41:08 | 43.16688 | 20.18695 | 94° | 13km/h | 31091m | -29.8m/s | -41.2°C | 1.8% | 0hPa | 0V | 00:00:00 | 00:00:00 | 00:00:00 | |
| LZ4TU-5 | 2026-09-05 06:39:49 | 43.16722 | 20.18818 | 186° | 18km/h | 31776m | 6.0m/s | -41.2°C | 2.2% | 0hPa | 0V | 00:00:00 | 00:00:00 | 00:00:00 | |
| LZ4TU-5 | 2026-09-05 06:39:44 | 43.16715 | 20.18840 | 335° | 15km/h | 31741m | 5.7m/s | -41.5°C | 2.3% | 0hPa | 0V | 00:00:00 | 00:00:00 | 00:00:00 | |
| LZ4TU-5 | 2026-09-05 06:38:23 | 43.16666 | 20.18674 | 99° | 22km/h | 31155m | 8.9m/s | -40.8°C | 2.1% | 0hPa | 0V | 00:00:00 | 00:00:00 | 00:00:00 | |
| LZ4TU-5 | 2026-09-05 06:38:18 | 43.16656 | 20.18649 | 61° | 16km/h | 31120m | 9.5m/s | -40.8°C | 2.0% | 0hPa | 0V | 00:00:00 | 00:00:00 | 00:00:00 | |
| LZ4TU-5 | 2026-09-05 06:36:58 | 43.16503 | 20.18299 | 38° | 26km/h | 30560m | 6.7m/s | -42.2°C | 1.8% | 0hPa | 0V | 00:00:00 | 00:00:00 | 00:00:00 | |
| LZ4TU-5 | 2026-09-05 06:35:33 | 43.16296 | 20.18269 | 142° | 9km/h | 29981m | 4.8m/s | -43.6°C | 1.7% | 0hPa | 0V | 00:00:00 | 00:00:00 | 00:00:00 | |
| LZ4TU-5 | 2026-09-05 06:35:28 | 43.16286 | 20.18280 | 320° | 15km/h | 29948m | 6.6m/s | -44.0°C | 1.8% | 0hPa | 0V | 00:00:00 | 00:00:00 | 00:00:00 | |
| LZ4TU-5 | 2026-09-05 06:34:00 | 43.16048 | 20.18362 | 331° | 16km/h | 29325m | 9.4m/s | -44.2°C | 1.7% | 0hPa | 0V | 00:00:00 | 00:00:00 | 00:00:00 | |
| LZ4TU-5 | 2026-09-05 06:33:55 | 43.16033 | 20.18366 | 329° | 9km/h | 29292m | 9.0m/s | -44.1°C | 1.7% | 0hPa | 0V | 00:00:00 | 00:00:00 | 00:00:00 | |
| LZ4TU-5 | 2026-09-05 06:32:35 | 43.15774 | 20.18514 | 263° | 18km/h | 28739m | 9.4m/s | -44.9°C | 1.7% | 0hPa | 0V | 00:00:00 | 00:00:00 | 00:00:00 | |
| LZ4TU-5 | 2026-09-05 06:32:30 | 43.15784 | 20.18546 | 324° | 16km/h | 28704m | 8.2m/s | -45.0°C | 1.7% | 0hPa | 0V | 00:00:00 | 00:00:00 | 00:00:00 | |
| LZ4TU-5 | 2026-09-05 06:31:00 | 43.15770 | 20.18643 | 131° | 13km/h | 28055m | 8.3m/s | -44.6°C | 1.3% | 0hPa | 0V | 00:00:00 | 00:00:00 | 00:00:00 | |
| LZ4TU-5 | 2026-09-05 06:30:55 | 43.15761 | 20.18642 | 353° | 29km/h | 28023m | 6.8m/s | -44.9°C | 1.3% | 0hPa | 0V | 00:00:00 | 00:00:00 | 00:00:00 | |
| LZ4TU-5 | 2026-09-05 06:29:26 | 43.15712 | 20.18613 | 286° | 16km/h | 27426m | 5.9m/s | -47.2°C | 1.4% | 0hPa | 0V | 00:00:00 | 00:00:00 | 00:00:00 | |
| LZ4TU-5 | 2026-09-05 06:29:21 | 43.15707 | 20.18605 | 133° | 15km/h | 27389m | 5.3m/s | -47.1°C | 1.4% | 0hPa | 0V | 00:00:00 | 00:00:00 | 00:00:00 | |
| LZ4TU-5 | 2026-09-05 06:28:00 | 43.15586 | 20.18771 | 270° | 20km/h | 26840m | 7.2m/s | -47.6°C | 1.4% | 0hPa | 0V | 00:00:00 | 00:00:00 | 00:00:00 | |
| LZ4TU-5 | 2026-09-05 06:27:55 | 43.15574 | 20.18795 | 350° | 16km/h | 26805m | 7.4m/s | -47.3°C | 1.3% | 0hPa | 0V | 00:00:00 | 00:00:00 | 00:00:00 | |
| LZ4TU-5 | 2026-09-05 06:27:50 | 43.15554 | 20.18819 | 306° | 24km/h | 26771m | 5.2m/s | -47.1°C | 1.2% | 0hPa | 0V | 00:00:00 | 00:00:00 | 00:00:00 | |
| LZ4TU-5 | 2026-09-05 06:26:31 | 43.15433 | 20.19086 | 347° | 11km/h | 26241m | 6.3m/s | -47.5°C | 1.3% | 0hPa | 0V | 00:00:00 | 00:00:00 | 00:00:00 | |
| LZ4TU-5 | 2026-09-05 06:26:27 | 43.15415 | 20.19115 | 290° | 29km/h | 26214m | 4.2m/s | -47.7°C | 1.3% | 0hPa | 0V | 00:00:00 | 00:00:00 | 00:00:00 | |
| LZ4TU-5 | 2026-09-05 06:25:07 | 43.15362 | 20.19440 | 293° | 29km/h | 25654m | 7.5m/s | -47.6°C | 1.2% | 0hPa | 0V | 00:00:00 | 00:00:00 | 00:00:00 | |
| LZ4TU-5 | 2026-09-05 06:25:03 | 43.15354 | 20.19471 | 282° | 18km/h | 25628m | 5.1m/s | -47.6°C | 1.2% | 0hPa | 0V | 00:00:00 | 00:00:00 | 00:00:00 | |
| LZ4TU-5 | 2026-09-05 06:23:42 | 43.15539 | 20.19695 | 54° | 13km/h | 25075m | 6.8m/s | -48.3°C | 0.9% | 0hPa | 0V | 00:00:00 | 00:00:00 | 00:00:00 | |
| LZ4TU-5 | 2026-09-05 06:23:38 | 43.15535 | 20.19697 | 230° | 7km/h | 25047m | 5.9m/s | -48.3°C | 0.8% | 0hPa | 0V | 00:00:00 | 00:00:00 | 00:00:00 | |
| LZ4TU-5 | 2026-09-05 06:22:16 | 43.15498 | 20.19851 | 148° | 4km/h | 24518m | 6.4m/s | -51.3°C | 0.9% | 0hPa | 0V | 00:00:00 | 00:00:00 | 00:00:00 | |
| LZ4TU-5 | 2026-09-05 06:22:11 | 43.15491 | 20.19867 | 318° | 26km/h | 24488m | 4.9m/s | -51.5°C | 0.9% | 0hPa | 0V | 00:00:00 | 00:00:00 | 00:00:00 | |
| LZ4TU-5 | 2026-09-05 06:20:47 | 43.15499 | 20.20115 | 0° | 0km/h | 23949m | 6.2m/s | -52.3°C | 0.8% | 0hPa | 0V | 00:00:00 | 00:00:00 | 00:00:00 | |
| LZ4TU-5 | 2026-09-05 06:19:26 | 43.15226 | 20.20374 | 305° | 31km/h | 23414m | 5.8m/s | -53.7°C | 1.0% | 0hPa | 0V | 00:00:00 | 00:00:00 | 00:00:00 | |
| LZ4TU-5 | 2026-09-05 06:19:21 | 43.15209 | 20.20393 | 260° | 15km/h | 23378m | 7.2m/s | -53.5°C | 1.0% | 0hPa | 0V | 00:00:00 | 00:00:00 | 00:00:00 | |
| LZ4TU-5 | 2026-09-05 06:18:00 | 43.15155 | 20.20644 | 240° | 9km/h | 22856m | 7.3m/s | -53.7°C | 0.6% | 0hPa | 0V | 00:00:00 | 00:00:00 | 00:00:00 | |
| LZ4TU-5 | 2026-09-05 06:17:55 | 43.15151 | 20.20647 | 0° | 0km/h | 22824m | 7.6m/s | -53.9°C | 0.6% | 0hPa | 0V | 00:00:00 | 00:00:00 | 00:00:00 | |
| LZ4TU-5 | 2026-09-05 06:16:36 | 43.15407 | 20.20629 | 91° | 7km/h | 22324m | 7.5m/s | -54.6°C | 0.9% | 0hPa | 0V | 00:00:00 | 00:00:00 | 00:00:00 | |
| LZ4TU-5 | 2026-09-05 06:16:31 | 43.15403 | 20.20609 | 107° | 13km/h | 22293m | 6.8m/s | -54.7°C | 0.9% | 0hPa | 0V | 00:00:00 | 00:00:00 | 00:00:00 | |
| LZ4TU-5 | 2026-09-05 06:15:11 | 43.15180 | 20.20412 | 326° | 15km/h | 21771m | 5.7m/s | -54.2°C | 0.6% | 0hPa | 0V | 00:00:00 | 00:00:00 | 00:00:00 | |
| LZ4TU-5 | 2026-09-05 06:15:06 | 43.15181 | 20.20408 | 137° | 11km/h | 21742m | 5.3m/s | -54.2°C | 0.6% | 0hPa | 0V | 00:00:00 | 00:00:00 | 00:00:00 | |
| LZ4TU-5 | 2026-09-05 06:13:48 | 43.15329 | 20.20107 | 71° | 16km/h | 21259m | 5.2m/s | -55.8°C | 0.2% | 0hPa | 0V | 00:00:00 | 00:00:00 | 00:00:00 | |
| LZ4TU-5 | 2026-09-05 06:13:44 | 43.15319 | 20.20071 | 86° | 40km/h | 21237m | 5.5m/s | -56.2°C | 0.3% | 0hPa | 0V | 00:00:00 | 00:00:00 | 00:00:00 | |
| LZ4TU-5 | 2026-09-05 06:12:24 | 43.15127 | 20.19825 | 22° | 18km/h | 20751m | 7.8m/s | -56.9°C | 1.1% | 0hPa | 0V | 00:00:00 | 00:00:00 | 00:00:00 | |
| LZ4TU-5 | 2026-09-05 06:12:20 | 43.15105 | 20.19821 | 350° | 18km/h | 20727m | 6.8m/s | -56.8°C | 1.1% | 0hPa | 0V | 00:00:00 | 00:00:00 | 00:00:00 | |
| LZ4TU-5 | 2026-09-05 06:10:59 | 43.14952 | 20.19966 | 48° | 5km/h | 20227m | 5.6m/s | -56.4°C | 0.8% | 0hPa | 0V | 00:00:00 | 00:00:00 | 00:00:00 | |
| LZ4TU-5 | 2026-09-05 06:10:55 | 43.14946 | 20.19970 | 283° | 7km/h | 20204m | 6.5m/s | -56.6°C | 0.8% | 0hPa | 0V | 00:00:00 | 00:00:00 | 00:00:00 | |
| LZ4TU-5 | 2026-09-05 06:09:36 | 43.14891 | 20.19898 | 325° | 9km/h | 19728m | 7.1m/s | -56.7°C | 0.6% | 0hPa | 0V | 00:00:00 | 00:00:00 | 00:00:00 | |
| LZ4TU-5 | 2026-09-05 06:09:31 | 43.14884 | 20.19890 | 41° | 13km/h | 19697m | 6.7m/s | -56.9°C | 0.6% | 0hPa | 0V | 00:00:00 | 00:00:00 | 00:00:00 | |
| LZ4TU-5 | 2026-09-05 06:08:07 | 43.14960 | 20.19587 | 139° | 11km/h | 19217m | 6.9m/s | -57.5°C | 1.0% | 0hPa | 0V | 00:00:00 | 00:00:00 | 00:00:00 | |
| LZ4TU-5 | 2026-09-05 06:08:02 | 43.14977 | 20.19575 | 159° | 16km/h | 19187m | 7.1m/s | -57.5°C | 1.0% | 0hPa | 0V | 00:00:00 | 00:00:00 | 00:00:00 | |
| LZ4TU-5 | 2026-09-05 06:07:57 | 43.14997 | 20.19560 | 134° | 24km/h | 19157m | 7.6m/s | -57.5°C | 1.0% | 0hPa | 0V | 00:00:00 | 00:00:00 | 00:00:00 | |
| LZ4TU-5 | 2026-09-05 06:06:40 | 43.15039 | 20.19086 | 0° | 0km/h | 18715m | 4.4m/s | -58.8°C | 1.4% | 0hPa | 0V | 00:00:00 | 00:00:00 | 00:00:00 | |
| LZ4TU-5 | 2026-09-05 06:06:35 | 43.15036 | 20.19075 | 66° | 13km/h | 18683m | 4.6m/s | -58.7°C | 1.2% | 0hPa | 0V | 00:00:00 | 00:00:00 | 00:00:00 | |
| LZ4TU-5 | 2026-09-05 06:05:15 | 43.15128 | 20.18495 | 139° | 11km/h | 18229m | 4.9m/s | -58.5°C | 1.3% | 0hPa | 0V | 00:00:00 | 00:00:00 | 00:00:00 | |
| LZ4TU-5 | 2026-09-05 06:05:10 | 43.15135 | 20.18460 | 111° | 22km/h | 18202m | 4.4m/s | -58.6°C | 1.2% | 0hPa | 0V | 00:00:00 | 00:00:00 | 00:00:00 | |
| LZ4TU-5 | 2026-09-05 06:03:45 | 43.15174 | 20.17422 | 78° | 49km/h | 17717m | 5.6m/s | -59.5°C | 2.1% | 0hPa | 0V | 00:00:00 | 00:00:00 | 00:00:00 | |
| LZ4TU-5 | 2026-09-05 06:03:41 | 43.15169 | 20.17357 | 94° | 47km/h | 17694m | 6.4m/s | -59.4°C | 2.1% | 0hPa | 0V | 00:00:00 | 00:00:00 | 00:00:00 | |
| LZ4TU-5 | 2026-09-05 06:02:20 | 43.15127 | 20.16392 | 84° | 37km/h | 17234m | 6.1m/s | -60.2°C | 2.7% | 0hPa | 0V | 00:00:00 | 00:00:00 | 00:00:00 | |
| LZ4TU-5 | 2026-09-05 06:02:16 | 43.15126 | 20.16340 | 102° | 40km/h | 17214m | 3.6m/s | -60.1°C | 2.7% | 0hPa | 0V | 00:00:00 | 00:00:00 | 00:00:00 | |
| LZ4TU-5 | 2026-09-05 06:00:56 | 43.15095 | 20.15529 | 75° | 29km/h | 16761m | 5.6m/s | -61.2°C | 3.2% | 0hPa | 0V | 00:00:00 | 00:00:00 | 00:00:00 | |
| LZ4TU-5 | 2026-09-05 06:00:51 | 43.15092 | 20.15483 | 97° | 26km/h | 16733m | 6.6m/s | -61.3°C | 3.2% | 0hPa | 0V | 00:00:00 | 00:00:00 | 00:00:00 | |
| LZ4TU-5 | 2026-09-05 05:59:32 | 43.15154 | 20.14676 | 80° | 31km/h | 16294m | 6.2m/s | -61.9°C | 4.0% | 0hPa | 0V | 00:00:00 | 00:00:00 | 00:00:00 | |
| LZ4TU-5 | 2026-09-05 05:59:29 | 43.15156 | 20.14626 | 99° | 42km/h | 16272m | 7.4m/s | -61.9°C | 4.0% | 0hPa | 0V | 00:00:00 | 00:00:00 | 00:00:00 | |
| LZ4TU-5 | 2026-09-05 05:58:08 | 43.15255 | 20.13689 | 120° | 35km/h | 15816m | 8.1m/s | -61.5°C | 5.2% | 0hPa | 0V | 00:00:00 | 00:00:00 | 00:00:00 | |
| LZ4TU-5 | 2026-09-05 05:58:04 | 43.15269 | 20.13645 | 105° | 35km/h | 15793m | 6.6m/s | -61.4°C | 5.5% | 0hPa | 0V | 00:00:00 | 00:00:00 | 00:00:00 | |
| LZ4TU-5 | 2026-09-05 05:56:43 | 43.15293 | 20.12873 | 106° | 26km/h | 15357m | 7.3m/s | -61.1°C | 8.1% | 0hPa | 0V | 00:00:00 | 00:00:00 | 00:00:00 | |
| LZ4TU-5 | 2026-09-05 05:56:39 | 43.15300 | 20.12833 | 92° | 27km/h | 15336m | 5.5m/s | -61.0°C | 8.4% | 0hPa | 0V | 00:00:00 | 00:00:00 | 00:00:00 | |
| LZ4TU-5 | 2026-09-05 05:55:19 | 43.15607 | 20.12104 | 122° | 55km/h | 14908m | 5.1m/s | -61.8°C | 14.2% | 0hPa | 0V | 00:00:00 | 00:00:00 | 00:00:00 | |
| LZ4TU-5 | 2026-09-05 05:55:15 | 43.15632 | 20.12050 | 118° | 40km/h | 14889m | 4.5m/s | -61.8°C | 14.4% | 0hPa | 0V | 00:00:00 | 00:00:00 | 00:00:00 | |
| LZ4TU-5 | 2026-09-05 05:53:55 | 43.15884 | 20.11026 | 106° | 31km/h | 14464m | 5.8m/s | -63.9°C | 23.1% | 0hPa | 0V | 00:00:00 | 00:00:00 | 00:00:00 | |
| LZ4TU-5 | 2026-09-05 05:52:31 | 43.16222 | 20.10469 | 116° | 16km/h | 13977m | 9.0m/s | -65.2°C | 28.2% | 0hPa | 0V | 00:00:00 | 00:00:00 | 00:00:00 | |
| LZ4TU-5 | 2026-09-05 05:52:27 | 43.16229 | 20.10450 | 123° | 11km/h | 13949m | 5.8m/s | -65.0°C | 28.2% | 0hPa | 0V | 00:00:00 | 00:00:00 | 00:00:00 | |
| LZ4TU-5 | 2026-09-05 05:51:06 | 43.16598 | 20.10081 | 217° | 7km/h | 13444m | 6.7m/s | -64.2°C | 26.6% | 0hPa | 0V | 00:00:00 | 00:00:00 | 00:00:00 | |
| LZ4TU-5 | 2026-09-05 05:51:01 | 43.16614 | 20.10065 | 134° | 31km/h | 13413m | 8.3m/s | -64.0°C | 26.5% | 0hPa | 0V | 00:00:00 | 00:00:00 | 00:00:00 | |
| LZ4TU-5 | 2026-09-05 05:49:41 | 43.16917 | 20.09686 | 128° | 42km/h | 12949m | 6.4m/s | -60.8°C | 24.8% | 0hPa | 0V | 00:00:00 | 00:00:00 | 00:00:00 | |
| LZ4TU-5 | 2026-09-05 05:49:36 | 43.16945 | 20.09647 | 142° | 20km/h | 12918m | 6.5m/s | -60.6°C | 25.1% | 0hPa | 0V | 00:00:00 | 00:00:00 | 00:00:00 | |
| LZ4TU-5 | 2026-09-05 05:48:15 | 43.17307 | 20.09301 | 134° | 22km/h | 12436m | 6.1m/s | -57.2°C | 25.1% | 0hPa | 0V | 00:00:00 | 00:00:00 | 00:00:00 | |
| LZ4TU-5 | 2026-09-05 05:48:11 | 43.17328 | 20.09283 | 154° | 31km/h | 12411m | 5.0m/s | -57.0°C | 25.3% | 0hPa | 0V | 00:00:00 | 00:00:00 | 00:00:00 | |
| LZ4TU-5 | 2026-09-05 05:46:45 | 43.17677 | 20.08582 | 120° | 18km/h | 11897m | 7.5m/s | -53.5°C | 21.5% | 0hPa | 0V | 00:00:00 | 00:00:00 | 00:00:00 | |
| LZ4TU-5 | 2026-09-05 05:46:40 | 43.17706 | 20.08539 | 132° | 46km/h | 11870m | 5.5m/s | -53.3°C | 20.7% | 0hPa | 0V | 00:00:00 | 00:00:00 | 00:00:00 | |
| LZ4TU-5 | 2026-09-05 05:45:18 | 43.18072 | 20.07729 | 115° | 27km/h | 11395m | 6.2m/s | -49.0°C | 13.9% | 0hPa | 0V | 00:00:00 | 00:00:00 | 00:00:00 | |
| LZ4TU-5 | 2026-09-05 05:45:14 | 43.18090 | 20.07696 | 128° | 38km/h | 11372m | 4.7m/s | -48.8°C | 14.0% | 0hPa | 0V | 00:00:00 | 00:00:00 | 00:00:00 | |
| LZ4TU-5 | 2026-09-05 05:43:54 | 43.18351 | 20.06947 | 119° | 37km/h | 10923m | 5.8m/s | -44.9°C | 11.9% | 0hPa | 0V | 00:00:00 | 00:00:00 | 00:00:00 | |
| LZ4TU-5 | 2026-09-05 05:43:50 | 43.18379 | 20.06906 | 140° | 42km/h | 10897m | 7.7m/s | -44.7°C | 11.8% | 0hPa | 0V | 00:00:00 | 00:00:00 | 00:00:00 | |
| LZ4TU-5 | 2026-09-05 05:42:25 | 43.18765 | 20.06082 | 123° | 55km/h | 10411m | 6.5m/s | -40.4°C | 8.1% | 0hPa | 0V | 00:00:00 | 00:00:00 | 00:00:00 | |
| LZ4TU-5 | 2026-09-05 05:41:05 | 43.19191 | 20.05289 | 143° | 35km/h | 9951m | 6.0m/s | -36.5°C | 7.8% | 0hPa | 0V | 00:00:00 | 00:00:00 | 00:00:00 | |
| LZ4TU-5 | 2026-09-05 05:41:00 | 43.19231 | 20.05234 | 116° | 42km/h | 9921m | 6.3m/s | -36.2°C | 8.0% | 0hPa | 0V | 00:00:00 | 00:00:00 | 00:00:00 | |
| LZ4TU-5 | 2026-09-05 05:39:34 | 43.19767 | 20.04313 | 151° | 33km/h | 9426m | 5.2m/s | -33.1°C | 10.6% | 0hPa | 0V | 00:00:00 | 00:00:00 | 00:00:00 | |
| LZ4TU-5 | 2026-09-05 05:39:29 | 43.19792 | 20.04263 | 112° | 49km/h | 9400m | 5.1m/s | -32.9°C | 10.8% | 0hPa | 0V | 00:00:00 | 00:00:00 | 00:00:00 | |
| LZ4TU-5 | 2026-09-05 05:38:03 | 43.20367 | 20.03506 | 130° | 35km/h | 8896m | 7.2m/s | -30.0°C | 13.5% | 0hPa | 0V | 00:00:00 | 00:00:00 | 00:00:00 |